Terminal Aerodrome Forecast
Issued by NWS

Home | Current Version | Previous Version | Text Only | Print | Product List | Glossary On
Versions: 1 2 3 4 5 6 7 8 9 10 11 12 13 14 15 16 17 18 19 20 21 22 23 24 25 26 27 28 29 30 31 32 33 34 35
936
FTUS43 KABR 252331
TAFATY
TAF
KATY 252331Z 2600/2624 30018G27KT P6SM SCT060
     FM260200 30015KT P6SM SKC
     FM261600 31022G32KT P6SM SKC=

USA.gov is the U.S. government's official web portal to all federal, state and local government web resources and services.